Lower San Francisco Plaza, New Mexico
Current Conditions -  °F | °C
As of 12:15 PM on Monday 20 Oct 2014 (Local Time) from KJTC Reporting Station
Broken Clouds Broken Clouds  
Wind Chill: 59°   Ceiling: 8500
Heat Index: 59°   Visibility: 10mi
Dew Point: 41°   Wind: 10mph
Humidity: 51%   Direction: 350°N
Pressure: 30.23"   Gusts: NA
Location:  33.6665°N, 108.765°W
Report Text: KJTC 201815Z AUTO 35009KT 10SM BKN085 15/05 A3023 RMK AO2
Loading
Personal Weather Stations






























Interactive Weather Map
Tropical Storm Tracking
New forecast layout! Learn more

10-Day Weather Forecast

Advertisements
Track Severe Weather on mobile